Time;durP1;ratioP1;P1;durP2;ratioP2;P2;SDS_P1;SDS_P2;PMS_P1;PMS_P2;Temp;Humidity;BMP_temperature;BMP_pressure;BME280_temperature;BME280_humidity;BME280_pressure;Samples;Min_cycle;Max_cycle;Signal;HPM_P1;HPM_P2
2023/10/15 00:01:50;;;;;;;0.30;0.30;;;7.50;99.90;;;;;;5055495;28;20499;-90
2023/10/15 00:04:16;;;;;;;0.30;0.30;;;7.40;99.90;;;;;;5073676;28;20424;-90
2023/10/15 00:06:41;;;;;;;0.23;0.23;;;7.50;99.90;;;;;;5055261;28;20481;-89
2023/10/15 00:09:07;;;;;;;0.20;0.20;;;7.50;99.90;;;;;;5054407;28;20221;-88
2023/10/15 00:11:33;;;;;;;0.20;0.20;;;7.40;99.90;;;;;;5055393;28;20217;-88
2023/10/15 00:13:59;;;;;;;0.30;0.30;;;7.50;99.90;;;;;;5073957;28;20504;-90
2023/10/15 00:16:25;;;;;;;0.30;0.30;;;7.40;99.90;;;;;;5055255;28;20456;-90
2023/10/15 00:18:51;;;;;;;0.30;0.30;;;7.40;99.90;;;;;;5073238;28;20174;-90
2023/10/15 00:21:17;;;;;;;0.30;0.30;;;7.40;99.90;;;;;;5071248;28;20424;-90
2023/10/15 00:23:44;;;;;;;0.30;0.30;;;7.40;99.90;;;;;;5078448;28;20185;-89
2023/10/15 00:26:14;;;;;;;0.30;0.30;;;7.40;99.90;;;;;;5072125;28;20177;-90
2023/10/15 00:28:40;;;;;;;0.30;0.30;;;7.30;99.90;;;;;;5072510;28;20459;-90
2023/10/15 00:31:10;;;;;;;0.30;0.30;;;7.30;99.90;;;;;;5072498;28;20947;-89
2023/10/15 00:33:39;;;;;;;0.30;0.30;;;7.30;99.90;;;;;;5071697;28;20912;-88
2023/10/15 00:36:05;;;;;;;0.30;0.30;;;7.20;99.90;;;;;;5071310;28;20509;-88
2023/10/15 00:38:31;;;;;;;0.30;0.30;;;7.20;99.90;;;;;;5071367;28;20460;-87
2023/10/15 00:41:08;;;;;;;0.30;0.30;;;7.20;99.90;;;;;;5067639;28;20194;-87
2023/10/15 00:43:34;;;;;;;0.30;0.30;;;7.10;99.90;;;;;;5073653;28;20189;-87
2023/10/15 00:46:03;;;;;;;0.30;0.30;;;7.20;99.90;;;;;;5070288;28;20436;-89
2023/10/15 00:48:36;;;;;;;0.30;0.30;;;7.20;99.90;;;;;;5053198;28;20480;-88
2023/10/15 00:51:13;;;;;;;0.30;0.30;;;7.10;99.90;;;;;;5052912;28;20439;-87
2023/10/15 00:53:50;;;;;;;0.30;0.30;;;7.10;99.90;;;;;;5071412;28;20530;-89
2023/10/15 00:56:19;;;;;;;0.30;0.30;;;7.10;99.90;;;;;;5053287;28;20999;-86
2023/10/15 01:03:49;;;;;;;0.30;0.30;;;6.90;99.90;;;;;;5070944;28;20488;-88
2023/10/15 01:06:18;;;;;;;0.30;0.30;;;7.00;99.90;;;;;;5070356;28;20551;-88
2023/10/15 01:08:46;;;;;;;0.30;0.30;;;6.90;99.90;;;;;;5064404;28;20468;-88
2023/10/15 01:11:18;;;;;;;0.30;0.30;;;6.90;99.90;;;;;;5070783;28;20440;-87
2023/10/15 01:13:44;;;;;;;0.30;0.30;;;7.00;99.90;;;;;;5071574;28;20432;-88
2023/10/15 01:16:12;;;;;;;0.30;0.30;;;6.90;99.90;;;;;;5051926;28;20440;-88
2023/10/15 01:18:39;;;;;;;0.30;0.30;;;6.90;99.90;;;;;;5071216;28;20424;-88
2023/10/15 01:21:09;;;;;;;0.20;0.20;;;6.90;99.90;;;;;;5069936;28;20471;-87
2023/10/15 01:26:13;;;;;;;0.30;0.30;;;6.90;99.90;;;;;;5071153;28;20436;-87
2023/10/15 01:28:40;;;;;;;0.30;0.30;;;6.90;99.90;;;;;;5069968;28;20479;-88
2023/10/15 01:31:06;;;;;;;0.30;0.30;;;6.90;99.90;;;;;;5070487;28;20738;-88
2023/10/15 01:33:50;;;;;;;0.20;0.20;;;6.90;99.90;;;;;;5067471;28;20965;-88
2023/10/15 01:36:27;;;;;;;0.30;0.30;;;6.80;99.90;;;;;;5065334;28;20247;-89
2023/10/15 01:38:58;;;;;;;0.30;0.30;;;6.90;99.90;;;;;;5067960;28;20415;-89
2023/10/15 01:41:27;;;;;;;0.30;0.30;;;6.90;99.90;;;;;;5057400;28;20456;-88
2023/10/15 01:43:56;;;;;;;0.30;0.30;;;6.90;99.90;;;;;;5070178;28;20519;-88
2023/10/15 01:46:48;;;;;;;0.30;0.30;;;6.90;99.90;;;;;;5068396;28;20444;-88
2023/10/15 01:49:33;;;;;;;0.30;0.30;;;7.00;99.90;;;;;;5070390;28;21009;-87
2023/10/15 01:52:09;;;;;;;0.30;0.30;;;7.00;99.90;;;;;;5053193;28;20432;-87
2023/10/15 01:54:38;;;;;;;0.20;0.20;;;7.10;99.90;;;;;;5072601;28;20490;-88
2023/10/15 01:57:07;;;;;;;0.30;0.30;;;7.00;99.90;;;;;;5075153;28;20451;-89
2023/10/15 01:59:48;;;;;;;0.30;0.30;;;7.10;99.90;;;;;;5074565;28;20437;-88
2023/10/15 02:02:24;;;;;;;0.30;0.30;;;7.00;99.90;;;;;;5073197;28;20468;-88
2023/10/15 02:04:50;;;;;;;0.30;0.30;;;7.00;99.90;;;;;;5074535;28;20436;-88
2023/10/15 02:07:17;;;;;;;0.40;0.40;;;7.00;99.90;;;;;;5053506;28;20507;-88
2023/10/15 02:09:45;;;;;;;0.30;0.30;;;7.00;99.90;;;;;;5047871;28;20222;-85
2023/10/15 02:12:12;;;;;;;0.30;0.30;;;7.00;99.90;;;;;;5044065;28;20467;-87
2023/10/15 02:14:41;;;;;;;0.30;0.30;;;7.00;99.90;;;;;;5056428;28;20417;-88
2023/10/15 02:17:13;;;;;;;0.30;0.30;;;7.00;99.90;;;;;;5070063;28;20485;-89
2023/10/15 02:19:43;;;;;;;0.30;0.30;;;7.00;99.90;;;;;;5073984;28;20443;-88
2023/10/15 02:22:13;;;;;;;0.30;0.30;;;7.00;99.90;;;;;;5074200;28;20888;-85
2023/10/15 02:24:46;;;;;;;0.30;0.30;;;6.90;99.90;;;;;;5072181;28;20444;-87
2023/10/15 02:27:18;;;;;;;0.30;0.30;;;6.90;99.90;;;;;;5073927;28;20428;-89
2023/10/15 02:29:50;;;;;;;0.30;0.30;;;6.80;99.90;;;;;;5073768;28;20475;-87
2023/10/15 02:34:51;;;;;;;0.30;0.30;;;6.80;99.90;;;;;;5073957;28;20424;-88
2023/10/15 02:37:18;;;;;;;0.30;0.30;;;6.80;99.90;;;;;;5073575;28;20846;-88
2023/10/15 02:39:50;;;;;;;0.30;0.30;;;6.80;99.90;;;;;;5067077;28;20236;-88
2023/10/15 02:42:16;;;;;;;0.30;0.30;;;6.80;99.90;;;;;;5065786;28;20447;-87
2023/10/15 02:44:42;;;;;;;0.30;0.30;;;6.80;99.90;;;;;;5055782;28;20428;-87
2023/10/15 02:47:13;;;;;;;0.30;0.30;;;6.90;99.90;;;;;;5073299;28;20463;-89
2023/10/15 02:49:52;;;;;;;0.30;0.30;;;6.90;99.90;;;;;;5073022;28;20295;-87
2023/10/15 02:52:19;;;;;;;0.30;0.30;;;6.90;99.90;;;;;;5040520;28;20435;-89
2023/10/15 02:54:45;;;;;;;0.30;0.30;;;7.00;99.90;;;;;;5073370;28;20527;-90
2023/10/15 02:57:15;;;;;;;0.30;0.30;;;7.00;99.90;;;;;;5054818;28;20478;-89
2023/10/15 02:59:51;;;;;;;0.30;0.30;;;7.00;99.90;;;;;;5074031;28;20843;-87
2023/10/15 03:02:18;;;;;;;0.30;0.30;;;7.10;99.90;;;;;;5073529;28;20436;-88
2023/10/15 03:04:49;;;;;;;0.30;0.30;;;7.00;99.90;;;;;;5073708;28;20428;-88
2023/10/15 03:07:29;;;;;;;0.20;0.20;;;7.00;99.90;;;;;;5055627;28;20428;-87
2023/10/15 03:09:58;;;;;;;0.30;0.30;;;7.00;99.90;;;;;;5063275;28;20610;-87
2023/10/15 03:12:25;;;;;;;0.30;0.30;;;7.00;99.90;;;;;;5061853;28;20435;-88
2023/10/15 03:14:54;;;;;;;0.30;0.30;;;7.00;99.90;;;;;;5067857;28;20456;-88
2023/10/15 03:17:29;;;;;;;0.30;0.30;;;7.00;99.90;;;;;;5073093;28;20432;-88
2023/10/15 03:19:55;;;;;;;0.30;0.30;;;7.00;99.90;;;;;;5073180;28;20435;-89
2023/10/15 03:22:24;;;;;;;0.30;0.30;;;6.90;99.90;;;;;;5073225;28;20458;-88
2023/10/15 03:24:56;;;;;;;0.30;0.30;;;6.90;99.90;;;;;;5055103;28;20444;-89
2023/10/15 03:27:27;;;;;;;0.30;0.30;;;6.90;99.90;;;;;;5043475;28;20454;-88
2023/10/15 03:29:56;;;;;;;0.30;0.30;;;6.80;99.90;;;;;;5073116;28;20487;-87
2023/10/15 03:32:27;;;;;;;0.30;0.30;;;6.80;99.90;;;;;;5070315;28;20548;-88
2023/10/15 03:35:04;;;;;;;0.30;0.30;;;6.80;99.90;;;;;;5047104;28;20865;-89
2023/10/15 03:37:30;;;;;;;;;;;6.80;99.90;;;;;;5072741;28;20280;-88
2023/10/15 03:39:55;;;;;;;0.30;0.30;;;6.80;99.90;;;;;;5071984;28;20513;-88
2023/10/15 03:42:26;;;;;;;0.30;0.30;;;6.80;99.90;;;;;;5072815;28;20995;-87
2023/10/15 03:44:59;;;;;;;0.30;0.30;;;6.80;99.90;;;;;;5073355;28;20932;-88
2023/10/15 03:47:25;;;;;;;0.30;0.30;;;6.80;99.90;;;;;;5072418;28;20763;-88
2023/10/15 03:49:51;;;;;;;0.30;0.30;;;6.80;99.90;;;;;;5070977;28;20503;-87
2023/10/15 03:52:20;;;;;;;0.30;0.30;;;6.80;99.90;;;;;;5071859;28;20459;-87
2023/10/15 03:54:49;;;;;;;0.30;0.30;;;6.70;99.90;;;;;;5072560;28;20440;-89
2023/10/15 03:57:19;;;;;;;0.30;0.30;;;6.70;99.90;;;;;;5072676;28;20446;-88
2023/10/15 03:59:51;;;;;;;0.30;0.30;;;6.70;99.90;;;;;;5055564;28;20424;-89
2023/10/15 04:02:23;;;;;;;0.30;0.30;;;6.80;99.90;;;;;;5064437;28;20830;-86
2023/10/15 04:05:08;;;;;;;0.30;0.30;;;6.70;99.90;;;;;;5055500;28;20517;-87
2023/10/15 04:07:48;;;;;;;0.30;0.30;;;6.70;99.90;;;;;;5076511;28;20423;-87
2023/10/15 04:10:15;;;;;;;0.30;0.30;;;6.70;99.90;;;;;;5061901;28;20490;-87
2023/10/15 04:12:43;;;;;;;0.30;0.30;;;6.70;99.90;;;;;;5072517;28;20787;-89
2023/10/15 04:15:16;;;;;;;0.40;0.40;;;6.70;99.90;;;;;;5073378;28;20471;-89
2023/10/15 04:17:45;;;;;;;0.30;0.30;;;6.60;99.90;;;;;;5064843;28;20985;-89
2023/10/15 04:20:15;;;;;;;0.30;0.30;;;6.70;99.90;;;;;;5069504;28;20539;-87
2023/10/15 04:22:44;;;;;;;0.30;0.30;;;6.70;99.90;;;;;;5072248;28;20507;-87
2023/10/15 04:25:26;;;;;;;0.30;0.30;;;6.70;99.90;;;;;;5072796;28;20523;-86
2023/10/15 04:27:54;;;;;;;0.27;0.27;;;6.70;99.90;;;;;;5054659;28;20462;-90
2023/10/15 04:30:20;;;;;;;0.30;0.30;;;6.80;99.90;;;;;;5072768;28;20534;-86
2023/10/15 04:32:47;;;;;;;0.30;0.30;;;6.70;99.90;;;;;;5072359;28;20436;-90
2023/10/15 04:35:16;;;;;;;0.30;0.30;;;6.70;99.90;;;;;;5071062;28;20452;-89
2023/10/15 04:37:44;;;;;;;0.30;0.30;;;6.70;99.90;;;;;;5072179;28;20428;-88
2023/10/15 04:40:11;;;;;;;0.30;0.30;;;6.80;99.90;;;;;;5049095;28;20487;-88
2023/10/15 04:42:40;;;;;;;0.30;0.30;;;6.80;99.90;;;;;;5072848;28;20412;-88
2023/10/15 04:45:20;;;;;;;0.30;0.30;;;6.80;99.90;;;;;;5071328;28;20523;-88
2023/10/15 04:47:54;;;;;;;0.30;0.30;;;6.70;99.90;;;;;;5051866;28;20489;-86
2023/10/15 04:50:21;;;;;;;0.30;0.30;;;6.70;99.90;;;;;;5070145;28;21020;-87
2023/10/15 04:52:47;;;;;;;0.30;0.30;;;6.70;99.90;;;;;;5051633;28;20936;-87
2023/10/15 04:55:13;;;;;;;0.30;0.30;;;6.70;99.90;;;;;;5052207;28;20438;-88
2023/10/15 04:57:39;;;;;;;0.30;0.30;;;6.70;99.90;;;;;;5071867;28;20266;-86
2023/10/15 05:00:06;;;;;;;0.30;0.30;;;6.60;99.90;;;;;;5071053;28;20503;-89
2023/10/15 05:02:35;;;;;;;0.30;0.30;;;6.60;99.90;;;;;;5068466;28;20182;-87
2023/10/15 05:05:01;;;;;;;0.30;0.30;;;6.60;99.90;;;;;;5063377;28;20494;-87
2023/10/15 05:07:27;;;;;;;0.30;0.30;;;6.60;99.90;;;;;;5060929;28;20445;-85
2023/10/15 05:09:56;;;;;;;0.30;0.30;;;6.60;99.90;;;;;;5061414;28;20222;-87
2023/10/15 05:12:21;;;;;;;0.30;0.30;;;6.50;99.90;;;;;;5063219;28;20448;-87
2023/10/15 05:14:49;;;;;;;0.30;0.30;;;6.50;99.90;;;;;;5073626;28;20516;-86
2023/10/15 05:17:15;;;;;;;0.30;0.30;;;6.50;99.90;;;;;;5069346;28;20567;-88
2023/10/15 05:19:42;;;;;;;0.30;0.30;;;6.50;99.90;;;;;;5071015;28;20457;-87
2023/10/15 05:22:08;;;;;;;0.30;0.30;;;6.50;99.90;;;;;;5071469;28;20432;-89
2023/10/15 05:24:34;;;;;;;0.30;0.30;;;6.40;99.90;;;;;;5070852;28;20424;-88
2023/10/15 05:27:00;;;;;;;0.30;0.30;;;6.50;99.90;;;;;;5052386;28;20463;-85
2023/10/15 05:29:26;;;;;;;0.30;0.30;;;6.40;99.90;;;;;;5071056;28;20580;-87
2023/10/15 05:31:53;;;;;;;0.30;0.30;;;6.40;99.90;;;;;;5066577;28;20649;-88
2023/10/15 05:34:20;;;;;;;0.30;0.30;;;6.30;99.90;;;;;;5068957;28;20188;-87
2023/10/15 05:36:45;;;;;;;0.30;0.30;;;6.30;99.90;;;;;;5051070;28;20436;-86
2023/10/15 05:39:15;;;;;;;0.30;0.30;;;6.30;99.90;;;;;;5066940;28;20445;-87
2023/10/15 05:41:42;;;;;;;0.30;0.30;;;6.30;99.90;;;;;;5065758;28;20568;-88
2023/10/15 05:44:08;;;;;;;0.30;0.30;;;6.30;99.90;;;;;;5069681;28;20525;-86
2023/10/15 05:46:33;;;;;;;0.30;0.30;;;6.30;99.90;;;;;;5070209;28;20436;-84
2023/10/15 05:48:59;;;;;;;0.30;0.30;;;6.30;99.90;;;;;;5069749;28;20222;-88
2023/10/15 05:51:28;;;;;;;0.30;0.30;;;6.30;99.90;;;;;;5068143;28;20195;-86
2023/10/15 05:53:54;;;;;;;0.40;0.40;;;6.30;99.90;;;;;;5063403;28;20185;-86
2023/10/15 05:56:21;;;;;;;0.30;0.30;;;6.40;99.90;;;;;;5069023;28;21159;-86
2023/10/15 05:58:47;;;;;;;0.30;0.30;;;6.40;99.90;;;;;;5064220;28;20697;-86
2023/10/15 06:01:12;;;;;;;0.30;0.30;;;6.40;99.90;;;;;;5068603;28;20999;-86
2023/10/15 06:03:38;;;;;;;0.30;0.30;;;6.40;99.90;;;;;;5041658;28;20183;-86
2023/10/15 06:06:05;;;;;;;0.30;0.30;;;6.40;99.90;;;;;;5048826;28;20193;-88
2023/10/15 06:08:30;;;;;;;0.30;0.30;;;6.40;99.90;;;;;;5050791;28;20475;-86
2023/10/15 06:10:57;;;;;;;0.30;0.30;;;6.40;99.90;;;;;;5063566;28;20449;-85
2023/10/15 06:13:23;;;;;;;0.30;0.30;;;6.30;99.90;;;;;;5058687;28;20178;-85
2023/10/15 06:15:50;;;;;;;0.30;0.30;;;6.30;99.90;;;;;;5067604;28;20444;-86
2023/10/15 06:18:15;;;;;;;0.30;0.30;;;6.30;99.90;;;;;;5069873;28;20553;-84
2023/10/15 06:20:41;;;;;;;0.30;0.30;;;6.20;99.90;;;;;;5060737;28;20454;-84
2023/10/15 06:23:08;;;;;;;0.40;0.40;;;6.30;99.90;;;;;;5069154;28;20278;-84
2023/10/15 06:25:35;;;;;;;0.30;0.30;;;6.30;99.90;;;;;;5051788;28;20563;-83
2023/10/15 06:28:05;;;;;;;0.30;0.30;;;6.30;99.90;;;;;;5064188;28;20466;-84
2023/10/15 06:30:30;;;;;;;0.30;0.30;;;6.30;99.90;;;;;;5064203;28;20561;-84
2023/10/15 06:32:56;;;;;;;0.30;0.30;;;6.30;99.90;;;;;;5068483;28;20440;-85
2023/10/15 06:35:25;;;;;;;0.30;0.30;;;6.40;99.90;;;;;;5066344;28;20188;-85
2023/10/15 06:37:55;;;;;;;0.30;0.30;;;6.30;99.90;;;;;;5070217;28;20190;-86
2023/10/15 06:40:21;;;;;;;0.30;0.30;;;6.40;99.90;;;;;;5074690;28;20442;-86
2023/10/15 06:42:47;;;;;;;0.30;0.30;;;6.40;99.90;;;;;;5054596;28;20442;-88
2023/10/15 06:45:18;;;;;;;0.30;0.30;;;6.50;99.90;;;;;;5044267;28;20949;-87
2023/10/15 06:47:47;;;;;;;0.30;0.30;;;6.50;99.90;;;;;;5060977;28;20186;-86
2023/10/15 06:50:14;;;;;;;0.30;0.30;;;6.50;99.90;;;;;;5061404;28;20992;-86
2023/10/15 06:52:41;;;;;;;0.30;0.30;;;6.60;99.90;;;;;;5057363;28;20437;-89
2023/10/15 06:55:07;;;;;;;0.30;0.30;;;6.60;99.90;;;;;;5072421;28;20440;-87
2023/10/15 06:57:38;;;;;;;0.30;0.30;;;6.70;99.90;;;;;;5073299;28;20423;-89
2023/10/15 07:00:21;;;;;;;0.30;0.30;;;6.60;99.90;;;;;;5073319;28;20517;-89
2023/10/15 07:02:47;;;;;;;0.30;0.30;;;6.60;99.90;;;;;;5073567;28;20424;-89
2023/10/15 07:05:13;;;;;;;0.30;0.30;;;6.70;99.90;;;;;;5053572;28;20451;-88
2023/10/15 07:07:38;;;;;;;0.30;0.30;;;6.70;99.90;;;;;;5072457;28;20436;-88
2023/10/15 07:10:07;;;;;;;0.30;0.30;;;6.80;99.90;;;;;;5047405;28;20658;-88
2023/10/15 07:12:34;;;;;;;0.30;0.30;;;6.80;99.90;;;;;;5068049;28;20182;-88
2023/10/15 07:14:59;;;;;;;0.30;0.30;;;7.00;99.90;;;;;;5068468;28;20433;-91
2023/10/15 07:17:25;;;;;;;0.30;0.30;;;7.00;99.90;;;;;;5072543;28;20428;-86
2023/10/15 07:19:51;;;;;;;0.30;0.30;;;7.20;99.90;;;;;;5053911;28;20562;-86
2023/10/15 07:22:16;;;;;;;0.30;0.30;;;7.30;99.90;;;;;;5070984;28;20260;-87
2023/10/15 07:24:42;;;;;;;0.30;0.30;;;7.30;99.90;;;;;;5072081;28;20186;-93
2023/10/15 07:27:08;;;;;;;0.30;0.30;;;7.50;99.90;;;;;;5076521;28;20257;-92
2023/10/15 07:29:34;;;;;;;0.20;0.20;;;7.60;99.90;;;;;;5077846;28;20563;-94
2023/10/15 07:32:00;;;;;;;0.30;0.30;;;7.60;99.90;;;;;;5063171;28;20210;-92
2023/10/15 07:34:26;;;;;;;0.30;0.30;;;7.50;99.90;;;;;;5050607;28;19916;-89
2023/10/15 07:36:55;;;;;;;0.30;0.30;;;7.70;99.90;;;;;;5054497;28;20612;-86
2023/10/15 07:39:25;;;;;;;0.27;0.27;;;7.90;99.90;;;;;;5067698;28;20501;-84
2023/10/15 07:41:51;;;;;;;0.30;0.30;;;8.00;99.90;;;;;;5072620;28;20950;-86
2023/10/15 07:44:17;;;;;;;0.20;0.20;;;8.20;99.90;;;;;;5081713;28;20463;-86
2023/10/15 07:46:43;;;;;;;0.23;0.23;;;8.30;99.90;;;;;;5071712;28;20439;-84
2023/10/15 07:49:12;;;;;;;0.30;0.30;;;8.40;99.90;;;;;;5070739;28;20487;-86
2023/10/15 07:51:40;;;;;;;0.20;0.20;;;8.60;99.90;;;;;;5061818;28;20186;-87
2023/10/15 07:54:06;;;;;;;0.20;0.20;;;8.80;99.90;;;;;;5066730;28;20476;-89
2023/10/15 07:56:34;;;;;;;0.20;0.20;;;8.80;99.90;;;;;;5058524;28;20473;-85
2023/10/15 07:59:04;;;;;;;0.20;0.20;;;8.90;99.90;;;;;;5061430;28;20469;-85
2023/10/15 08:01:30;;;;;;;0.20;0.20;;;9.00;99.90;;;;;;5042585;28;21001;-86
2023/10/15 08:03:59;;;;;;;0.20;0.20;;;9.20;99.90;;;;;;5053421;28;20525;-83
2023/10/15 08:06:25;;;;;;;0.20;0.20;;;9.20;99.90;;;;;;5061471;28;20449;-85
2023/10/15 08:08:50;;;;;;;0.20;0.20;;;9.30;99.90;;;;;;5053398;28;20570;-86
2023/10/15 08:11:17;;;;;;;0.20;0.20;;;9.40;99.90;;;;;;5068274;28;20460;-83
2023/10/15 08:13:42;;;;;;;0.20;0.20;;;9.60;99.90;;;;;;5060397;28;20424;-85
2023/10/15 08:16:08;;;;;;;0.20;0.20;;;9.70;99.90;;;;;;5061735;28;20652;-84
2023/10/15 08:18:33;;;;;;;0.20;0.20;;;9.70;99.90;;;;;;5067387;28;20190;-84
2023/10/15 08:20:59;;;;;;;0.20;0.20;;;9.70;99.90;;;;;;5049321;28;20557;-85
2023/10/15 08:23:24;;;;;;;0.20;0.20;;;9.70;99.90;;;;;;5041250;28;20190;-84
2023/10/15 08:25:50;;;;;;;0.10;0.10;;;9.80;99.90;;;;;;5051694;28;20700;-83
2023/10/15 08:28:16;;;;;;;0.20;0.20;;;10.00;99.90;;;;;;5033925;28;20205;-85
2023/10/15 08:30:42;;;;;;;0.20;0.20;;;10.10;99.90;;;;;;5059891;28;20276;-84
2023/10/15 08:33:12;;;;;;;0.20;0.20;;;9.80;99.90;;;;;;5058387;28;20934;-85
2023/10/15 08:35:38;;;;;;;0.20;0.20;;;10.00;99.90;;;;;;5066732;28;20194;-84
2023/10/15 08:38:07;;;;;;;0.20;0.20;;;10.10;99.90;;;;;;5053103;28;20441;-85
2023/10/15 08:40:37;;;;;;;0.20;0.20;;;10.00;99.90;;;;;;5057169;28;20424;-84
2023/10/15 08:43:13;;;;;;;0.20;0.20;;;9.60;99.90;;;;;;5063361;28;20936;-82
2023/10/15 08:45:42;;;;;;;0.20;0.20;;;9.80;99.90;;;;;;5060796;28;20467;-84
2023/10/15 08:48:10;;;;;;;0.20;0.20;;;9.80;99.90;;;;;;5064668;28;20457;-83
2023/10/15 08:50:37;;;;;;;0.20;0.20;;;10.20;99.90;;;;;;5055378;28;20433;-84
2023/10/15 08:53:08;;;;;;;0.20;0.20;;;10.50;99.90;;;;;;5057184;28;20465;-85
2023/10/15 08:55:36;;;;;;;0.20;0.20;;;10.90;99.90;;;;;;5061757;28;20527;-85
2023/10/15 08:58:06;;;;;;;0.20;0.20;;;11.30;99.90;;;;;;5064137;28;20477;-85
2023/10/15 09:00:32;;;;;;;0.10;0.10;;;11.60;99.90;;;;;;5061973;28;20872;-81
2023/10/15 09:03:02;;;;;;;0.10;0.10;;;12.00;99.90;;;;;;5070368;28;20420;-82
2023/10/15 09:05:33;;;;;;;0.10;0.10;;;11.50;99.90;;;;;;5049722;28;20449;-84
2023/10/15 09:08:06;;;;;;;0.20;0.20;;;11.60;99.90;;;;;;5068691;28;20439;-83
2023/10/15 09:10:32;;;;;;;0.20;0.20;;;11.40;99.90;;;;;;5047836;28;20494;-83
2023/10/15 09:12:59;;;;;;;0.10;0.10;;;11.10;99.90;;;;;;5056501;28;20441;-84
2023/10/15 09:15:29;;;;;;;0.10;0.10;;;10.80;99.90;;;;;;5065247;28;20570;-84
2023/10/15 09:18:00;;;;;;;0.10;0.10;;;10.60;99.90;;;;;;5068900;28;20509;-85
2023/10/15 09:20:27;;;;;;;0.10;0.10;;;10.50;99.90;;;;;;5051593;28;20428;-84
2023/10/15 09:22:59;;;;;;;0.10;0.10;;;10.20;99.90;;;;;;5065373;28;20432;-87
2023/10/15 09:25:26;;;;;;;0.20;0.20;;;10.20;99.90;;;;;;5069359;28;20939;-85
2023/10/15 09:27:58;;;;;;;0.10;0.10;;;10.30;99.90;;;;;;5051932;28;20420;-85
2023/10/15 09:30:26;;;;;;;0.20;0.20;;;10.20;99.90;;;;;;5051495;28;20440;-85
2023/10/15 09:32:52;;;;;;;0.10;0.10;;;10.40;99.90;;;;;;5052802;28;20440;-85
2023/10/15 09:35:22;;;;;;;0.10;0.10;;;10.90;99.90;;;;;;5069756;28;20428;-87
2023/10/15 09:37:48;;;;;;;0.20;0.20;;;11.60;99.90;;;;;;5042769;28;20486;-84
2023/10/15 09:40:19;;;;;;;0.20;0.20;;;12.30;99.90;;;;;;5062894;28;20803;-85
2023/10/15 09:42:49;;;;;;;0.10;0.10;;;12.60;99.90;;;;;;5052475;28;20231;-86
2023/10/15 09:45:19;;;;;;;0.10;0.10;;;12.20;99.90;;;;;;5067430;28;20447;-86
2023/10/15 09:47:48;;;;;;;0.10;0.10;;;11.70;99.90;;;;;;5068974;28;20955;-83
2023/10/15 09:50:24;;;;;;;0.10;0.10;;;11.80;99.90;;;;;;5062510;28;20497;-89
2023/10/15 09:52:56;;;;;;;0.10;0.10;;;12.20;99.90;;;;;;5051278;28;20491;-85
2023/10/15 09:55:31;;;;;;;0.10;0.10;;;13.10;99.90;;;;;;5069043;28;20617;-83
2023/10/15 09:58:09;;;;;;;0.10;0.10;;;13.40;99.90;;;;;;5069572;28;20775;-84
2023/10/15 10:03:39;;;;;;;0.10;0.10;;;12.90;99.90;;;;;;5053579;28;20793;-85
2023/10/15 10:06:31;;;;;;;0.10;0.10;;;12.20;99.90;;;;;;5051531;28;20770;-84
2023/10/15 10:09:10;;;;;;;0.10;0.10;;;11.80;99.90;;;;;;5063824;28;20468;-82
2023/10/15 10:12:20;;;;;;;0.10;0.10;;;11.80;99.90;;;;;;5071725;28;20424;-86
2023/10/15 10:14:51;;;;;;;0.10;0.10;;;12.40;99.90;;;;;;5040631;28;20953;-85
2023/10/15 10:17:20;;;;;;;0.10;0.10;;;13.00;99.90;;;;;;5053444;28;21087;-84
2023/10/15 10:19:52;;;;;;;0.10;0.10;;;13.10;99.90;;;;;;5071923;28;20451;-84
2023/10/15 10:22:26;;;;;;;0.10;0.10;;;13.40;99.90;;;;;;5070184;28;20439;-78
2023/10/15 10:24:53;;;;;;;0.10;0.10;;;14.00;99.90;;;;;;5049157;28;20715;-79
2023/10/15 10:27:19;;;;;;;0.10;0.10;;;14.30;99.90;;;;;;5052190;28;20482;-79
2023/10/15 10:29:52;;;;;;;0.10;0.10;;;14.70;99.90;;;;;;5072567;28;20484;-80
2023/10/15 10:32:19;;;;;;;0.10;0.10;;;14.70;99.90;;;;;;5072096;28;20491;-80
2023/10/15 10:34:46;;;;;;;0.10;0.10;;;14.60;99.90;;;;;;5054990;28;20797;-78
2023/10/15 10:37:23;;;;;;;0.10;0.10;;;13.80;99.90;;;;;;5072803;28;20515;-78
2023/10/15 10:39:49;;;;;;;0.10;0.10;;;13.30;99.90;;;;;;5067325;28;20453;-79
2023/10/15 10:42:23;;;;;;;0.10;0.10;;;13.20;99.90;;;;;;5067430;28;20497;-79
2023/10/15 10:44:49;;;;;;;0.10;0.10;;;12.60;99.90;;;;;;5061215;28;20512;-79
2023/10/15 10:47:21;;;;;;;0.10;0.10;;;12.10;99.90;;;;;;5064497;28;20954;-78
2023/10/15 10:49:58;;;;;;;0.10;0.10;;;11.40;99.90;;;;;;5068255;28;20222;-79
2023/10/15 10:52:29;;;;;;;0.03;0.03;;;11.50;99.90;;;;;;5061446;28;20412;-78
2023/10/15 10:54:57;;;;;;;0.03;0.03;;;11.30;99.90;;;;;;5054299;28;20523;-80
2023/10/15 10:57:31;;;;;;;0.03;0.03;;;11.40;99.90;;;;;;5064985;28;20433;-79
2023/10/15 10:59:58;;;;;;;0.10;0.10;;;11.40;99.90;;;;;;5059691;28;20420;-79
2023/10/15 11:02:23;;;;;;;0.10;0.10;;;11.10;99.90;;;;;;5049798;28;20465;-79
2023/10/15 11:04:50;;;;;;;0.10;0.10;;;11.00;99.90;;;;;;5035286;28;20455;-79
2023/10/15 11:07:16;;;;;;;0.10;0.10;;;10.40;99.90;;;;;;5063626;28;20193;-79
2023/10/15 11:09:42;;;;;;;0.10;0.10;;;10.40;99.90;;;;;;5062470;28;20480;-79
2023/10/15 11:12:12;;;;;;;0.10;0.10;;;11.00;99.90;;;;;;5072442;28;20534;-79
2023/10/15 11:14:39;;;;;;;0.00;0.00;;;11.90;99.90;;;;;;5064768;28;20453;-80
2023/10/15 11:17:07;;;;;;;0.00;0.00;;;12.90;99.90;;;;;;5072105;28;21082;-79
2023/10/15 11:19:33;;;;;;;0.00;0.00;;;13.70;99.90;;;;;;5072552;28;20441;-78
2023/10/15 11:21:59;;;;;;;0.03;0.03;;;14.30;99.90;;;;;;5071759;28;20493;-81
2023/10/15 11:24:26;;;;;;;0.10;0.10;;;14.60;99.90;;;;;;5065737;28;20193;-80
2023/10/15 11:26:56;;;;;;;0.10;0.10;;;15.70;99.90;;;;;;5047559;28;20595;-81
2023/10/15 11:29:23;;;;;;;0.10;0.10;;;16.00;99.90;;;;;;5050914;28;20477;-80
2023/10/15 11:31:51;;;;;;;0.10;0.00;;;14.90;99.90;;;;;;5067109;28;20420;-80
2023/10/15 11:34:19;;;;;;;0.10;0.10;;;14.00;99.90;;;;;;5072147;28;20476;-80
2023/10/15 11:36:48;;;;;;;0.10;0.10;;;13.30;99.90;;;;;;5071556;28;20462;-79
2023/10/15 11:39:18;;;;;;;0.10;0.10;;;12.60;99.90;;;;;;5038243;28;20493;-80
2023/10/15 11:41:50;;;;;;;0.10;0.10;;;12.20;99.90;;;;;;5071424;28;20497;-79
2023/10/15 11:44:17;;;;;;;0.10;0.10;;;11.80;99.90;;;;;;5072761;28;20442;-78
2023/10/15 11:46:44;;;;;;;0.10;0.10;;;11.50;99.90;;;;;;5053586;28;20424;-79
2023/10/15 11:49:12;;;;;;;0.10;0.10;;;11.50;99.90;;;;;;5054949;28;20482;-79
2023/10/15 11:51:39;;;;;;;0.10;0.10;;;11.10;99.90;;;;;;5054021;28;20428;-79
2023/10/15 11:54:09;;;;;;;0.10;0.10;;;10.90;99.90;;;;;;5073309;28;20186;-79
2023/10/15 11:56:37;;;;;;;0.10;0.10;;;12.40;99.90;;;;;;5059342;28;21027;-79
2023/10/15 11:59:03;;;;;;;0.10;0.10;;;13.80;99.90;;;;;;5059534;28;20452;-82
2023/10/15 12:01:29;;;;;;;0.10;0.10;;;15.00;99.90;;;;;;5050487;28;20464;-81
2023/10/15 12:04:00;;;;;;;0.10;0.10;;;16.20;99.90;;;;;;5066559;28;20448;-81
2023/10/15 12:06:26;;;;;;;0.10;0.10;;;16.30;99.90;;;;;;5068777;28;20568;-82
2023/10/15 12:08:52;;;;;;;0.10;0.00;;;16.90;99.90;;;;;;5064748;28;20476;-82
2023/10/15 12:11:19;;;;;;;0.10;0.00;;;17.10;99.90;;;;;;5050951;28;20707;-83
2023/10/15 12:13:47;;;;;;;0.10;0.00;;;16.30;99.90;;;;;;5052629;28;20546;-82
2023/10/15 12:16:14;;;;;;;0.10;0.00;;;15.60;99.90;;;;;;5068887;28;21087;-82
2023/10/15 12:18:39;;;;;;;0.10;0.10;;;14.20;99.90;;;;;;5049625;28;20509;-81
2023/10/15 12:21:06;;;;;;;0.10;0.10;;;13.10;99.90;;;;;;5047399;28;20435;-79
2023/10/15 12:23:31;;;;;;;0.10;0.10;;;12.30;99.90;;;;;;5064356;28;20197;-79
2023/10/15 12:25:57;;;;;;;0.10;0.10;;;11.40;99.90;;;;;;5065953;28;21020;-78
2023/10/15 12:28:23;;;;;;;0.10;0.10;;;11.00;99.90;;;;;;5067693;28;20746;-80
2023/10/15 12:30:48;;;;;;;0.10;0.10;;;10.70;99.90;;;;;;5063021;28;20186;-79
2023/10/15 12:33:15;;;;;;;0.10;0.10;;;10.60;99.90;;;;;;5064870;28;20178;-79
2023/10/15 12:35:43;;;;;;;0.20;0.20;;;10.20;99.90;;;;;;5066510;28;20217;-80
2023/10/15 12:38:16;;;;;;;0.20;0.20;;;9.90;99.90;;;;;;5045143;28;20972;-80
2023/10/15 12:40:45;;;;;;;0.20;0.20;;;9.60;99.90;;;;;;5045509;28;20444;-80
2023/10/15 12:43:15;;;;;;;0.20;0.20;;;9.70;99.90;;;;;;5066355;28;20419;-79
2023/10/15 12:45:44;;;;;;;0.10;0.10;;;11.10;99.90;;;;;;5048741;28;20460;-80
2023/10/15 12:48:10;;;;;;;0.10;0.10;;;12.20;99.90;;;;;;5060603;28;21247;-79
2023/10/15 12:50:37;;;;;;;0.10;0.10;;;12.40;99.90;;;;;;5067291;28;20444;-79
2023/10/15 12:53:03;;;;;;;0.10;0.10;;;13.90;99.90;;;;;;5066722;28;20436;-80
2023/10/15 12:55:28;;;;;;;0.10;0.10;;;13.50;99.90;;;;;;5066983;28;20448;-79
2023/10/15 12:57:54;;;;;;;0.10;0.10;;;11.90;99.90;;;;;;5062374;28;21016;-79
2023/10/15 13:00:27;;;;;;;0.10;0.10;;;11.60;99.90;;;;;;5023239;28;1321210;-79
2023/10/15 13:02:53;;;;;;;0.10;0.10;;;12.00;99.90;;;;;;5068645;28;20243;-79
2023/10/15 13:05:21;;;;;;;0.10;0.10;;;13.50;99.90;;;;;;5068199;28;20974;-79
2023/10/15 13:07:51;;;;;;;0.10;0.10;;;14.50;99.90;;;;;;5047321;28;20479;-82
2023/10/15 13:10:18;;;;;;;0.10;0.10;;;15.00;99.90;;;;;;5061684;28;20480;-81
2023/10/15 13:12:45;;;;;;;0.10;0.10;;;14.30;99.90;;;;;;5068817;28;20436;-81
2023/10/15 13:15:13;;;;;;;0.10;0.10;;;14.40;99.90;;;;;;5072913;28;20425;-82